createdAt,value
2015-09-12T00:00:57.238Z,100158
2015-09-12T00:06:01.186Z,100163
2015-09-12T00:11:02.990Z,100151
2015-09-12T00:16:05.079Z,100157
2015-09-12T00:21:08.776Z,100152
2015-09-12T00:26:10.786Z,100146
2015-09-12T00:31:14.139Z,100140
2015-09-12T00:36:15.164Z,100133
2015-09-12T00:41:17.363Z,100142
2015-09-12T00:46:20.873Z,100140
2015-09-12T00:51:22.341Z,100155
2015-09-12T00:56:24.160Z,100134
2015-09-12T01:01:26.514Z,100155
2015-09-12T01:06:28.727Z,100154
2015-09-12T01:11:30.987Z,100152
2015-09-12T01:16:33.497Z,100148
2015-09-12T01:22:24.228Z,100154
2015-09-12T01:27:26.955Z,100158
2015-09-12T01:32:29.440Z,100167
2015-09-12T01:37:32.567Z,100186
2015-09-12T01:42:33.433Z,100177
2015-09-12T01:47:35.756Z,100182
2015-09-12T01:52:38.484Z,100186
2015-09-12T01:57:40.857Z,100170
2015-09-12T02:02:42.570Z,100171
2015-09-12T02:07:46.720Z,100179
2015-09-12T02:12:47.603Z,100177
2015-09-12T02:17:49.379Z,100181
2015-09-12T02:22:53.623Z,100190
2015-09-12T02:27:54.523Z,100197
2015-09-12T02:32:56.831Z,100193
2015-09-12T02:37:59.199Z,100189
2015-09-12T02:43:02.178Z,100187
2015-09-12T02:48:03.720Z,100190
2015-09-12T02:53:05.962Z,100175
2015-09-12T02:58:08.167Z,100189
2015-09-12T03:03:10.489Z,100197
2015-09-12T03:08:12.281Z,100187
2015-09-12T03:13:16.431Z,100174
2015-09-12T03:18:17.379Z,100178
2015-09-12T03:23:19.670Z,100174
2015-09-12T03:28:21.929Z,100186
2015-09-12T03:33:24.250Z,100196
2015-09-12T03:38:27.995Z,100213
2015-09-12T03:43:28.755Z,100205
2015-09-12T03:48:31.077Z,100205
2015-09-12T03:53:33.744Z,100216
2015-09-12T03:58:36.815Z,100215
2015-09-12T04:03:38.028Z,100203
2015-09-12T04:08:40.227Z,100213
2015-09-12T04:13:42.078Z,100216
2015-09-12T04:18:44.931Z,100209
2015-09-12T04:23:47.144Z,100204
2015-09-12T04:28:49.514Z,100202
2015-09-12T04:33:51.757Z,100187
2015-09-12T04:38:53.580Z,100193
2015-09-12T04:43:56.403Z,100204
2015-09-12T04:49:00.068Z,100212
2015-09-12T04:54:00.842Z,100219
2015-09-12T04:59:03.243Z,100213
2015-09-12T05:04:05.641Z,100232
2015-09-12T05:09:07.957Z,100222
2015-09-12T05:14:10.248Z,100206
2015-09-12T05:19:12.779Z,100217
2015-09-12T05:24:15.150Z,100206
2015-09-12T05:29:17.535Z,100212
2015-09-12T05:34:19.715Z,100212
2015-09-12T05:39:21.648Z,100209
2015-09-12T05:44:23.844Z,100220
2015-09-12T05:49:26.135Z,100207
2015-09-12T05:54:28.380Z,100212
2015-09-12T05:59:30.640Z,100223
2015-09-12T06:04:32.884Z,100212
2015-09-12T06:09:34.738Z,100220
2015-09-12T06:14:37.526Z,100223
2015-09-12T06:19:40.005Z,100207
2015-09-12T06:24:43.031Z,100222
2015-09-12T06:29:45.322Z,100197
2015-09-12T06:34:48.426Z,100203
2015-09-12T06:39:50.639Z,100196
2015-09-12T06:44:52.961Z,100193
2015-09-12T06:49:54.752Z,100196
2015-09-12T06:54:58.652Z,100201
2015-09-12T07:00:00.191Z,100201
2015-09-12T07:05:03.046Z,100190
2015-09-12T07:10:05.759Z,100206
2015-09-12T07:15:08.488Z,100198
2015-09-12T07:20:10.278Z,100194
2015-09-12T07:25:13.023Z,100200
2015-09-12T07:30:15.720Z,100207
2015-09-12T07:35:17.168Z,100190
2015-09-12T07:40:20.849Z,100182
2015-09-12T07:45:22.670Z,100184
2015-09-12T07:50:24.524Z,100190
2015-09-12T07:55:26.815Z,100187
2015-09-12T08:00:29.075Z,100184
2015-09-12T08:05:31.382Z,100178
2015-09-12T08:10:33.656Z,100167
2015-09-12T08:15:35.902Z,100172
2015-09-12T08:20:37.801Z,100183
2015-09-12T08:25:41.372Z,100178
2015-09-12T08:30:42.804Z,100183
2015-09-12T08:35:45.953Z,100181
2015-09-12T08:40:48.182Z,100193
2015-09-12T08:45:51.553Z,100190
2015-09-12T08:50:53.780Z,100206
2015-09-12T08:55:56.040Z,100198
2015-09-12T09:00:57.848Z,100195
2015-09-12T09:06:00.185Z,100198
2015-09-12T09:11:02.821Z,100192
2015-09-12T09:16:05.719Z,100180
2015-09-12T09:21:07.369Z,100177
2015-09-12T09:26:09.676Z,100170
2015-09-12T09:31:11.935Z,100175
2015-09-12T09:36:14.259Z,100175
2015-09-12T09:41:17.175Z,100164
2015-09-12T09:46:19.012Z,100167
2015-09-12T09:51:22.444Z,100175
2015-09-12T09:56:23.439Z,100172
2015-09-12T10:01:25.636Z,100159
2015-09-12T10:06:27.877Z,100157
2015-09-12T10:11:30.169Z,100151
2015-09-12T10:16:32.414Z,100147
2015-09-12T10:21:34.814Z,100135
2015-09-12T10:26:37.073Z,100128
2015-09-12T10:31:39.521Z,100132
2015-09-12T10:36:41.641Z,100128
2015-09-12T10:41:43.868Z,100113
2015-09-12T10:46:47.925Z,100107
2015-09-12T10:51:49.374Z,100101
2015-09-12T10:56:51.680Z,100096
2015-09-12T11:01:54.019Z,100094
2015-09-12T11:06:57.325Z,100085
2015-09-12T11:11:59.616Z,100085
2015-09-12T11:17:01.469Z,100077
2015-09-12T11:22:05.604Z,100078
2015-09-12T11:27:06.410Z,100074
2015-09-12T11:32:08.905Z,100069
2015-09-12T11:37:11.037Z,100058
2015-09-12T11:42:13.345Z,100050
2015-09-12T11:47:15.620Z,100050
2015-09-12T11:52:17.910Z,100032
2015-09-12T11:57:20.202Z,100032
2015-09-12T12:02:22.009Z,100025
2015-09-12T12:07:25.597Z,100016
2015-09-12T12:12:26.920Z,100019
2015-09-12T12:17:29.289Z,100020
2015-09-12T12:22:31.924Z,100007
2015-09-12T12:27:36.136Z,100001
2015-09-12T12:32:37.319Z,99979
2015-09-12T12:37:39.265Z,99976
2015-09-12T12:42:41.478Z,99979
2015-09-12T12:47:43.754Z,99970
2015-09-12T12:52:47.295Z,99965
2015-09-12T12:57:49.493Z,99959
2015-09-12T13:02:52.015Z,99958
2015-09-12T13:07:53.838Z,99958
2015-09-12T13:12:55.957Z,99961
2015-09-12T13:17:58.216Z,99952
2015-09-12T13:23:00.540Z,99943
2015-09-12T13:28:02.752Z,99933
2015-09-12T13:33:05.043Z,99927
2015-09-12T13:38:07.287Z,99939
2015-09-12T13:43:09.374Z,99924
2015-09-12T13:48:13.557Z,99941
2015-09-12T13:53:14.832Z,99939
2015-09-12T13:58:17.234Z,99933
2015-09-12T14:03:19.627Z,99936
2015-09-12T14:08:22.432Z,99938
2015-09-12T14:13:24.324Z,99925
2015-09-12T14:18:26.600Z,99928
2015-09-12T14:23:28.884Z,99919
2015-09-12T14:28:31.270Z,99910
2015-09-12T14:33:32.983Z,99912
2015-09-12T14:38:36.774Z,99900
2015-09-12T14:43:39.408Z,99907
2015-09-12T14:48:40.232Z,99918
2015-09-12T14:53:43.351Z,99915
2015-09-12T14:58:45.564Z,99921
2015-09-12T15:03:48.058Z,99912
2015-09-12T15:08:50.318Z,99916
2015-09-12T15:13:53.078Z,99904
2015-09-12T15:18:54.305Z,99915
2015-09-12T15:23:57.066Z,99910
2015-09-12T15:28:59.607Z,99912
2015-09-12T15:34:01.536Z,99921
2015-09-12T15:39:03.859Z,99921
2015-09-12T15:44:07.946Z,99909
2015-09-12T15:49:10.222Z,99904
2015-09-12T15:54:12.497Z,99890
2015-09-12T15:59:14.351Z,99896
2015-09-12T16:04:17.595Z,99882
2015-09-12T16:09:19.324Z,99881
2015-09-12T16:14:21.536Z,99894
2015-09-12T16:19:23.906Z,99894
2015-09-12T16:24:27.509Z,99888
2015-09-12T16:29:28.379Z,99891
2015-09-12T16:34:30.654Z,99870
2015-09-12T16:39:32.929Z,99881
2015-09-12T16:44:34.705Z,99881
2015-09-12T16:49:37.433Z,99896
2015-09-12T16:54:39.660Z,99896
2015-09-12T16:59:41.655Z,99909
2015-09-12T17:04:44.305Z,99919
2015-09-12T17:09:46.861Z,99937
2015-09-12T17:14:48.871Z,99944
2015-09-12T17:19:51.162Z,99944
2015-09-12T17:24:54.343Z,99935
2015-09-12T17:29:55.213Z,99938
2015-09-12T17:34:58.254Z,99943
2015-09-12T17:40:00.655Z,99946
2015-09-12T17:45:02.602Z,99955
2015-09-12T17:50:05.298Z,99979
2015-09-12T17:55:08.866Z,99980
2015-09-12T18:00:12.922Z,99992
2015-09-12T18:05:14.792Z,100020
2015-09-12T18:10:17.098Z,100026
2015-09-12T18:15:19.295Z,100029
2015-09-12T18:20:21.913Z,100034
2015-09-12T18:25:23.985Z,100044
2015-09-12T18:30:26.151Z,100073
2015-09-12T18:35:29.676Z,100089
2015-09-12T18:40:33.202Z,100094
2015-09-12T18:45:33.727Z,100097
2015-09-12T18:50:36.003Z,100102
2015-09-12T18:55:39.590Z,100108
2015-09-12T19:00:42.883Z,100114
2015-09-12T19:05:44.221Z,100120
2015-09-12T19:10:46.558Z,100131
2015-09-12T19:15:48.818Z,100145
2015-09-12T19:20:51.094Z,100142
2015-09-12T19:25:53.385Z,100149
2015-09-12T19:30:55.660Z,100158
2015-09-12T19:35:57.433Z,100145
2015-09-12T19:41:01.335Z,100145
2015-09-12T19:46:02.500Z,100144
2015-09-12T19:51:04.745Z,100142
2015-09-12T19:56:07.098Z,100142
2015-09-12T20:01:09.341Z,100135
2015-09-12T20:06:11.648Z,100136
2015-09-12T20:11:13.986Z,100129
2015-09-12T20:16:17.020Z,100113
2015-09-12T20:21:18.131Z,100096
2015-09-12T20:26:21.485Z,100096
2015-09-12T20:31:23.220Z,100102
2015-09-12T20:36:25.058Z,100098
2015-09-12T20:41:27.193Z,100093
2015-09-12T20:46:30.390Z,100102
2015-09-12T20:51:31.774Z,100099
2015-09-12T20:56:34.423Z,100096
2015-09-12T21:01:37.574Z,100076
2015-09-12T21:06:39.412Z,100082
2015-09-12T21:11:42.891Z,100082
2015-09-12T21:16:44.354Z,100092
2015-09-12T21:21:47.770Z,100107
2015-09-12T21:26:49.373Z,100096
2015-09-12T21:31:52.055Z,100101
2015-09-12T21:36:54.346Z,100102
2015-09-12T21:41:56.668Z,100102
2015-09-12T21:46:59.006Z,100120
2015-09-12T21:52:01.604Z,100101
2015-09-12T21:57:03.239Z,100122
2015-09-12T22:02:06.281Z,100113
2015-09-12T22:07:08.821Z,100119
2015-09-12T22:12:10.378Z,100111
2015-09-12T22:17:12.620Z,100122
2015-09-12T22:22:14.974Z,100116
2015-09-12T22:27:17.265Z,100117
2015-09-12T22:32:19.525Z,100126
2015-09-12T22:37:21.301Z,100129
2015-09-12T22:42:25.200Z,100132
2015-09-12T22:47:26.288Z,100144
2015-09-12T22:52:28.547Z,100142
2015-09-12T22:57:30.902Z,100144
2015-09-12T23:02:33.177Z,100141
2015-09-12T23:07:36.522Z,100138
2015-09-12T23:12:40.088Z,100119
2015-09-12T23:17:41.872Z,100121
2015-09-12T23:22:45.657Z,100121
2015-09-12T23:27:47.223Z,100116
2015-09-12T23:32:49.170Z,100126
2015-09-12T23:37:51.494Z,100126
2015-09-12T23:42:53.770Z,100117
2015-09-12T23:47:56.014Z,100120
2015-09-12T23:52:58.232Z,100113
2015-09-12T23:58:00.523Z,100104
